Time;durP1;ratioP1;P1;durP2;ratioP2;P2;SDS_P1;SDS_P2;PMS_P1;PMS_P2;Temp;Humidity;BMP_temperature;BMP_pressure;BME280_temperature;BME280_humidity;BME280_pressure;Samples;Min_cycle;Max_cycle;Signal;HPM_P1;HPM_P2
2023/03/05 00:00:20;;;;;;;2.30;2.00;;;22.90;48.20;;;;;;222196;1256;22601;-40
2023/03/05 00:05:44;;;;;;;4.60;2.70;;;22.90;48.10;;;;;;222248;1256;24189;-41
2023/03/05 00:10:59;;;;;;;2.60;2.30;;;23.00;48.00;;;;;;222203;1263;22511;-40
2023/03/05 00:16:08;;;;;;;2.90;2.40;;;22.90;48.10;;;;;;222066;1257;22589;-41
2023/03/05 00:21:24;;;;;;;3.40;2.10;;;22.90;48.20;;;;;;222564;1256;25585;-39
2023/03/05 00:26:29;;;;;;;2.50;1.90;;;22.90;48.30;;;;;;223166;1264;24226;-40
2023/03/05 00:31:35;;;;;;;3.10;2.10;;;22.90;48.10;;;;;;223118;1260;22511;-40
2023/03/05 00:36:41;;;;;;;5.80;2.30;;;23.00;48.00;;;;;;222171;1258;25275;-40
2023/03/05 00:41:45;;;;;;;2.20;1.90;;;23.00;47.90;;;;;;221984;1263;22514;-39
2023/03/05 00:46:50;;;;;;;3.60;2.10;;;23.00;48.30;;;;;;222340;1263;22514;-40
2023/03/05 00:51:54;;;;;;;4.90;1.80;;;23.00;47.60;;;;;;224740;1259;25298;-41
2023/03/05 00:56:58;;;;;;;3.40;2.10;;;23.10;47.50;;;;;;222342;1266;24184;-40
2023/03/05 01:02:02;;;;;;;8.00;2.70;;;23.10;47.50;;;;;;222159;1256;22498;-38
2023/03/05 01:07:06;;;;;;;8.20;2.80;;;23.00;49.10;;;;;;222227;1270;23876;-39
2023/03/05 01:12:10;;;;;;;5.50;3.40;;;23.10;49.00;;;;;;222035;1259;22558;-41
2023/03/05 01:17:14;;;;;;;4.10;2.00;;;23.10;49.10;;;;;;222153;1250;22508;-40
2023/03/05 01:22:18;;;;;;;5.70;2.60;;;23.10;49.00;;;;;;222175;1263;22528;-39
2023/03/05 01:27:22;;;;;;;4.80;2.20;;;23.10;48.80;;;;;;222108;1266;22692;-39
2023/03/05 01:32:26;;;;;;;5.70;2.30;;;23.20;48.80;;;;;;222086;1257;22523;-40
2023/03/05 01:37:31;;;;;;;7.00;2.30;;;23.30;49.70;;;;;;222200;1258;23908;-41
2023/03/05 01:42:35;;;;;;;4.30;2.20;;;23.30;50.00;;;;;;222222;1263;22611;-40
2023/03/05 01:47:39;;;;;;;3.70;2.40;;;23.20;50.10;;;;;;222148;1262;22510;-40
2023/03/05 01:52:49;;;;;;;5.50;2.40;;;23.20;50.30;;;;;;221930;1264;22527;-41
2023/03/05 01:58:00;;;;;;;3.80;2.40;;;23.10;49.90;;;;;;222030;1263;22508;-39
2023/03/05 02:03:06;;;;;;;5.00;2.50;;;23.00;50.00;;;;;;222036;1266;24183;-42
2023/03/05 02:08:15;;;;;;;3.60;2.20;;;23.00;50.00;;;;;;221874;1266;23557;-40
2023/03/05 02:13:27;;;;;;;3.60;3.10;;;22.90;49.90;;;;;;221972;1266;24225;-40
2023/03/05 02:18:31;;;;;;;5.40;2.40;;;22.90;49.90;;;;;;221900;1264;174506;-40
2023/03/05 02:23:37;;;;;;;5.90;2.50;;;22.70;50.10;;;;;;222017;1269;23986;-39
2023/03/05 02:28:49;;;;;;;4.30;2.70;;;22.60;50.30;;;;;;222059;1265;22511;-40
2023/03/05 02:33:54;;;;;;;;;;;22.50;50.40;;;;;;222065;1265;22564;-40
2023/03/05 02:38:59;;;;;;;4.80;2.20;;;22.40;50.30;;;;;;222075;1267;24381;-39
2023/03/05 02:44:04;;;;;;;5.40;2.30;;;22.40;50.60;;;;;;222212;1260;22652;-40
2023/03/05 02:49:08;;;;;;;5.80;2.10;;;22.30;50.70;;;;;;222091;1264;22524;-41
2023/03/05 02:54:12;;;;;;;2.20;1.60;;;22.30;51.00;;;;;;222042;1263;22933;-47
2023/03/05 02:59:16;;;;;;;3.20;2.40;;;22.20;50.80;;;;;;222273;1269;22527;-45
2023/03/05 03:04:21;;;;;;;4.00;2.10;;;22.10;51.00;;;;;;222072;1270;24243;-47
2023/03/05 03:09:25;;;;;;;2.20;1.90;;;22.00;51.20;;;;;;222158;1250;22636;-44
2023/03/05 03:14:32;;;;;;;2.40;2.20;;;22.00;51.10;;;;;;222032;1266;23902;-47
2023/03/05 03:19:37;;;;;;;2.80;2.10;;;21.90;51.10;;;;;;222145;1268;22632;-46
2023/03/05 03:24:43;;;;;;;2.10;1.80;;;21.80;51.10;;;;;;222023;1265;24223;-46
2023/03/05 03:29:47;;;;;;;2.10;1.90;;;21.80;51.20;;;;;;222055;1264;24184;-47
2023/03/05 03:34:51;;;;;;;2.10;1.90;;;21.70;51.30;;;;;;222119;1256;22554;-44
2023/03/05 03:39:55;;;;;;;2.30;2.10;;;21.70;51.80;;;;;;222078;1266;22575;-47
2023/03/05 03:45:01;;;;;;;4.30;1.90;;;21.60;50.80;;;;;;222180;1265;22539;-46
2023/03/05 03:50:05;;;;;;;2.00;1.70;;;21.80;51.60;;;;;;222058;1263;22633;-47
2023/03/05 03:55:10;;;;;;;2.20;1.80;;;22.10;51.20;;;;;;222119;1269;22520;-47
2023/03/05 04:00:15;;;;;;;2.90;1.90;;;22.30;51.10;;;;;;221817;1259;23640;-49
2023/03/05 04:05:19;;;;;;;2.60;1.90;;;22.50;50.20;;;;;;222046;1264;22523;-46
2023/03/05 04:10:23;;;;;;;2.10;1.90;;;22.70;49.90;;;;;;222066;1257;23903;-46
2023/03/05 04:15:27;;;;;;;2.90;1.70;;;22.70;49.60;;;;;;222103;1270;23155;-49
2023/03/05 04:20:31;;;;;;;1.80;1.60;;;22.90;49.50;;;;;;222262;1258;22626;-47
2023/03/05 04:25:35;;;;;;;1.90;1.50;;;22.80;50.00;;;;;;222166;1266;22504;-45
2023/03/05 04:30:39;;;;;;;1.80;1.60;;;22.90;49.30;;;;;;222158;1270;22522;-46
2023/03/05 04:35:43;;;;;;;2.20;1.50;;;23.00;49.20;;;;;;222093;1263;25341;-46
2023/03/05 04:40:47;;;;;;;1.70;1.60;;;23.00;49.10;;;;;;222179;1266;22623;-47
2023/03/05 04:45:53;;;;;;;1.70;1.60;;;23.10;48.90;;;;;;222186;1266;22626;-46
2023/03/05 04:50:58;;;;;;;1.90;1.50;;;23.10;48.90;;;;;;222178;1264;22523;-48
2023/03/05 04:56:02;;;;;;;2.50;1.80;;;23.10;48.80;;;;;;222222;1269;22505;-46
2023/03/05 05:01:06;;;;;;;2.30;1.50;;;23.20;48.80;;;;;;222085;1263;25225;-47
2023/03/05 05:06:11;;;;;;;1.60;1.50;;;23.30;48.90;;;;;;222125;1264;22512;-52
2023/03/05 05:11:15;;;;;;;3.10;1.40;;;23.30;49.00;;;;;;222091;1257;25690;-45
2023/03/05 05:16:19;;;;;;;1.70;1.40;;;23.40;48.50;;;;;;222104;1264;25830;-48
2023/03/05 05:21:23;;;;;;;4.00;1.90;;;23.40;48.60;;;;;;222207;1263;24357;-46
2023/03/05 05:26:27;;;;;;;1.40;1.30;;;23.40;48.60;;;;;;222133;1258;23139;-46
2023/03/05 05:31:31;;;;;;;3.30;1.20;;;23.40;48.50;;;;;;222157;1266;22517;-47
2023/03/05 05:36:35;;;;;;;2.20;1.40;;;23.50;48.40;;;;;;222269;1257;22935;-45
2023/03/05 05:41:39;;;;;;;2.60;1.40;;;23.50;48.30;;;;;;222155;1263;22537;-47
2023/03/05 05:46:43;;;;;;;1.50;1.20;;;23.50;48.70;;;;;;221999;1264;22508;-45
2023/03/05 05:51:47;;;;;;;1.50;1.30;;;23.50;48.30;;;;;;222382;1264;22533;-46
2023/03/05 05:56:51;;;;;;;1.40;1.30;;;23.60;48.20;;;;;;222312;1264;22504;-46
2023/03/05 06:01:55;;;;;;;1.40;1.30;;;23.50;48.30;;;;;;222174;1258;22598;-48
2023/03/05 06:07:00;;;;;;;1.40;1.30;;;23.30;48.30;;;;;;222397;1267;24410;-46
2023/03/05 06:12:04;;;;;;;1.50;1.40;;;23.20;48.30;;;;;;222429;1257;25268;-48
2023/03/05 06:17:08;;;;;;;1.60;1.40;;;23.10;49.80;;;;;;222280;1258;25396;-47
2023/03/05 06:22:17;;;;;;;2.10;1.50;;;23.00;49.50;;;;;;222009;1257;24180;-45
2023/03/05 06:27:21;;;;;;;2.80;1.10;;;22.90;49.30;;;;;;222133;1270;22505;-47
2023/03/05 06:32:25;;;;;;;1.30;1.10;;;22.80;49.70;;;;;;222121;1264;22522;-51
2023/03/05 06:37:29;;;;;;;2.40;1.20;;;22.80;49.80;;;;;;222231;1257;22517;-46
2023/03/05 06:42:34;;;;;;;4.10;1.30;;;22.70;49.80;;;;;;222060;1267;22518;-51
2023/03/05 06:47:38;;;;;;;1.10;1.10;;;22.60;50.00;;;;;;222235;1264;24221;-46
2023/03/05 06:52:42;;;;;;;4.80;1.20;;;22.60;50.10;;;;;;222061;1257;22639;-46
2023/03/05 06:57:46;;;;;;;2.80;1.20;;;22.50;50.30;;;;;;222113;1256;22530;-46
2023/03/05 07:02:50;;;;;;;1.80;1.20;;;22.40;50.30;;;;;;222144;1252;25049;-46
2023/03/05 07:07:54;;;;;;;3.60;1.20;;;22.30;50.40;;;;;;222090;1264;22514;-46
2023/03/05 07:12:58;;;;;;;5.50;1.30;;;22.30;50.50;;;;;;222213;1269;22548;-48
2023/03/05 07:18:02;;;;;;;3.00;1.30;;;22.10;50.60;;;;;;222273;1270;25220;-46
2023/03/05 07:23:06;;;;;;;4.40;1.50;;;22.10;50.90;;;;;;222181;1260;22520;-47
2023/03/05 07:28:10;;;;;;;4.10;1.60;;;22.00;51.40;;;;;;222154;1256;24183;-40
2023/03/05 07:33:14;;;;;;;1.70;1.40;;;21.90;51.20;;;;;;222237;1263;22627;-40
2023/03/05 07:38:19;;;;;;;4.80;1.10;;;21.90;51.00;;;;;;222182;1264;23903;-40
2023/03/05 07:43:23;;;;;;;3.10;1.50;;;21.90;50.70;;;;;;222208;1263;24325;-39
2023/03/05 07:48:27;;;;;;;1.90;1.60;;;21.80;51.00;;;;;;222309;1263;22630;-39
2023/03/05 07:53:31;;;;;;;5.00;1.20;;;21.90;50.80;;;;;;222128;1256;22522;-39
2023/03/05 07:58:35;;;;;;;9.20;1.40;;;21.90;51.10;;;;;;222021;1258;22518;-49
2023/03/05 08:03:41;;;;;;;10.10;1.80;;;21.90;51.50;;;;;;222351;1264;24228;-55
2023/03/05 08:08:45;;;;;;;15.50;2.00;;;21.80;51.50;;;;;;222065;1264;25229;-53
2023/03/05 08:13:49;;;;;;;3.90;1.40;;;21.80;51.60;;;;;;221927;1260;25315;-52
2023/03/05 08:18:55;;;;;;;6.00;1.60;;;22.00;51.40;;;;;;222184;1263;25435;-52
2023/03/05 08:24:04;;;;;;;2.40;1.70;;;22.30;50.90;;;;;;221955;1263;23203;-53
2023/03/05 08:29:09;;;;;;;3.90;1.50;;;22.60;50.30;;;;;;221745;1253;22515;-50
2023/03/05 08:34:13;;;;;;;4.90;1.50;;;22.70;50.20;;;;;;222180;1263;24203;-52
2023/03/05 08:39:17;;;;;;;1.70;1.30;;;22.80;50.00;;;;;;222209;1264;24965;-49
2023/03/05 08:44:21;;;;;;;2.00;1.20;;;22.80;49.80;;;;;;221615;1257;22772;-47
2023/03/05 08:49:26;;;;;;;6.00;1.40;;;22.80;49.90;;;;;;222016;1270;25526;-49
2023/03/05 08:54:30;;;;;;;3.20;1.30;;;22.80;49.90;;;;;;221958;1263;23882;-54
2023/03/05 08:59:34;;;;;;;2.60;1.30;;;22.90;50.00;;;;;;221999;1258;24142;-56
2023/03/05 09:04:38;;;;;;;7.00;1.40;;;23.00;49.80;;;;;;222355;1263;23603;-54
2023/03/05 09:09:42;;;;;;;8.10;2.50;;;23.10;49.50;;;;;;222435;1260;22524;-54
2023/03/05 09:14:46;;;;;;;9.20;3.20;;;23.00;49.70;;;;;;222242;1263;25480;-53
2023/03/05 09:19:50;;;;;;;5.70;1.90;;;23.00;53.00;;;;;;222021;1267;24216;-60
2023/03/05 09:24:54;;;;;;;10.40;2.00;;;23.10;55.70;;;;;;222173;1263;22624;-58
2023/03/05 09:29:58;;;;;;;5.70;1.70;;;23.00;53.10;;;;;;222861;1269;22593;-54
2023/03/05 09:35:02;;;;;;;6.80;1.90;;;22.90;52.50;;;;;;221902;1262;24189;-52
2023/03/05 09:40:06;;;;;;;4.30;1.40;;;22.80;53.30;;;;;;222022;1257;25423;-52
2023/03/05 09:45:34;;;;;;;8.10;1.50;;;22.90;53.70;;;;;;221969;1263;24082;-54
2023/03/05 09:50:46;;;;;;;3.10;1.50;;;22.80;53.80;;;;;;222512;1247;24276;-57
2023/03/05 09:55:55;;;;;;;6.50;1.60;;;22.90;54.00;;;;;;222232;1263;24346;-55
2023/03/05 10:01:04;;;;;;;12.20;1.70;;;22.80;54.00;;;;;;222048;1256;24361;-57
2023/03/05 10:06:19;;;;;;;8.60;1.80;;;22.70;53.90;;;;;;222330;1248;22508;-60
2023/03/05 10:11:41;;;;;;;5.30;1.70;;;22.70;54.40;;;;;;222402;1263;22514;-60
2023/03/05 10:16:51;;;;;;;4.20;1.60;;;22.50;54.60;;;;;;222149;1256;22559;-57
2023/03/05 10:22:18;;;;;;;12.00;2.20;;;22.60;54.50;;;;;;222232;1257;22643;-56
2023/03/05 10:27:53;;;;;;;10.90;2.40;;;22.50;54.20;;;;;;222049;1263;22513;-54
2023/03/05 10:33:06;;;;;;;9.00;1.80;;;22.60;55.40;;;;;;221824;1263;25255;-58
2023/03/05 10:38:17;;;;;;;9.30;1.90;;;22.50;53.70;;;;;;222084;1263;23805;-57
2023/03/05 10:43:40;;;;;;;9.50;2.20;;;22.30;55.40;;;;;;222253;1246;25268;-57
2023/03/05 10:48:53;;;;;;;5.70;2.30;;;22.30;55.40;;;;;;222179;1246;22517;-47
2023/03/05 10:54:27;;;;;;;4.10;2.00;;;22.30;55.10;;;;;;222141;1262;25273;-47
2023/03/05 10:59:32;;;;;;;5.60;2.30;;;22.10;55.20;;;;;;221966;1256;22512;-45
2023/03/05 11:04:38;;;;;;;9.60;2.00;;;22.10;55.00;;;;;;222305;1256;24206;-46
2023/03/05 11:10:17;;;;;;;11.80;3.40;;;22.20;55.20;;;;;;222039;1256;25239;-41
2023/03/05 11:15:28;;;;;;;8.30;2.90;;;22.30;54.10;;;;;;222210;1247;22679;-50
2023/03/05 11:20:35;;;;;;;11.20;2.70;;;22.10;53.90;;;;;;222099;1262;22531;-50
2023/03/05 11:25:52;;;;;;;8.50;2.60;;;22.00;54.40;;;;;;222160;1263;25481;-47
2023/03/05 11:31:19;;;;;;;7.80;2.60;;;22.00;53.90;;;;;;221656;1263;25278;-46
2023/03/05 11:36:48;;;;;;;10.60;3.00;;;21.90;54.10;;;;;;222053;1266;24188;-46
2023/03/05 11:42:00;;;;;;;9.30;2.70;;;21.90;53.80;;;;;;222147;1270;25419;-49
2023/03/05 11:47:23;;;;;;;13.30;3.40;;;21.80;54.60;;;;;;222075;1256;26660;-49
2023/03/05 11:52:31;;;;;;;17.80;5.30;;;21.80;54.50;;;;;;222069;1263;25270;-51
2023/03/05 11:58:03;;;;;;;17.10;5.90;;;21.80;56.30;;;;;;221956;1263;24382;-50
2023/03/05 12:03:16;;;;;;;16.70;5.20;;;21.80;57.00;;;;;;221965;1263;23919;-43
2023/03/05 12:08:24;;;;;;;;;;;21.80;57.10;;;;;;222021;1257;25371;-43
2023/03/05 12:13:45;;;;;;;17.00;5.80;;;21.70;56.80;;;;;;222045;1263;22693;-44
2023/03/05 12:19:04;;;;;;;12.70;4.80;;;21.70;56.80;;;;;;222402;1263;22527;-44
2023/03/05 12:24:24;;;;;;;27.10;6.60;;;21.60;55.80;;;;;;222192;1257;24193;-45
2023/03/05 12:29:45;;;;;;;13.60;5.20;;;21.90;57.30;;;;;;222086;1263;22539;-49
2023/03/05 12:35:03;;;;;;;15.80;4.40;;;21.80;56.50;;;;;;221991;1263;23914;-45
2023/03/05 12:40:27;;;;;;;16.10;5.30;;;21.70;56.20;;;;;;222015;1257;22643;-48
2023/03/05 12:45:37;;;;;;;11.80;4.60;;;21.60;56.20;;;;;;221977;1263;22563;-46
2023/03/05 12:50:45;;;;;;;13.90;4.10;;;21.60;56.30;;;;;;222058;1263;22619;-49
2023/03/05 12:55:58;;;;;;;15.30;4.30;;;21.60;56.30;;;;;;221909;1250;23515;-48
2023/03/05 13:01:19;;;;;;;14.70;4.40;;;21.50;55.90;;;;;;221855;1262;24190;-46
2023/03/05 13:06:31;;;;;;;14.30;4.60;;;21.50;55.90;;;;;;221957;1257;22523;-46
2023/03/05 13:11:38;;;;;;;17.40;4.70;;;21.50;56.10;;;;;;221984;1263;25269;-47
2023/03/05 13:16:43;;;;;;;14.70;5.70;;;21.40;55.70;;;;;;222025;1263;22545;-46
2023/03/05 13:22:00;;;;;;;14.90;4.30;;;21.40;55.60;;;;;;222075;1263;22594;-48
2023/03/05 13:27:38;;;;;;;13.80;4.10;;;21.50;55.60;;;;;;222465;1263;22724;-49
2023/03/05 13:32:44;;;;;;;15.80;4.10;;;21.40;55.50;;;;;;221396;1269;25315;-48
2023/03/05 13:37:51;;;;;;;12.50;4.30;;;21.30;55.60;;;;;;220755;1263;22521;-49
2023/03/05 13:43:19;;;;;;;10.60;4.10;;;21.30;56.00;;;;;;220901;1263;24203;-48
2023/03/05 13:48:26;;;;;;;12.80;4.30;;;21.20;55.50;;;;;;220881;1262;22653;-53
2023/03/05 13:53:32;;;;;;;9.60;4.00;;;21.30;55.20;;;;;;220919;1262;22902;-46
2023/03/05 13:58:47;;;;;;;8.00;3.70;;;21.20;55.40;;;;;;220855;1265;24154;-50
2023/03/05 14:04:16;;;;;;;7.70;3.30;;;21.50;54.30;;;;;;220888;1269;22562;-50
2023/03/05 14:09:27;;;;;;;9.60;3.00;;;22.10;53.30;;;;;;221820;1254;25035;-50
2023/03/05 14:14:37;;;;;;;8.30;3.20;;;22.40;52.30;;;;;;222121;1256;22582;-47
2023/03/05 14:19:43;;;;;;;11.60;3.30;;;22.50;51.80;;;;;;222120;1263;141803;-49
2023/03/05 14:24:52;;;;;;;6.40;2.90;;;22.70;50.90;;;;;;221868;1248;24292;-46
2023/03/05 14:29:58;;;;;;;8.20;3.20;;;22.70;50.30;;;;;;222192;1263;24318;-49
2023/03/05 14:35:05;;;;;;;12.00;3.20;;;22.60;50.20;;;;;;221990;1266;25313;-45
2023/03/05 14:40:13;;;;;;;6.90;3.10;;;22.50;50.80;;;;;;221918;1256;22512;-46
2023/03/05 14:45:42;;;;;;;6.40;2.70;;;22.30;50.10;;;;;;223409;1263;23956;-46
2023/03/05 14:50:55;;;;;;;10.90;3.50;;;22.20;51.00;;;;;;221991;1263;25063;-44
2023/03/05 14:56:01;;;;;;;10.10;3.70;;;22.00;51.50;;;;;;222041;1263;24213;-43
2023/03/05 15:01:12;;;;;;;5.70;2.40;;;22.00;51.50;;;;;;222207;1262;22530;-43
2023/03/05 15:06:29;;;;;;;12.10;3.00;;;22.00;51.50;;;;;;221982;1263;25368;-45
2023/03/05 15:11:35;;;;;;;9.20;3.10;;;22.10;52.40;;;;;;222017;1256;24297;-45
2023/03/05 15:16:44;;;;;;;5.00;2.80;;;22.20;53.90;;;;;;221626;1263;24043;-44
2023/03/05 15:21:50;;;;;;;6.80;3.00;;;22.10;54.50;;;;;;222226;1263;26156;-58
2023/03/05 15:26:56;;;;;;;7.90;3.00;;;22.10;54.80;;;;;;221958;1262;22649;-58
2023/03/05 15:32:04;;;;;;;11.60;2.80;;;22.00;54.80;;;;;;222075;1263;24609;-57
2023/03/05 15:37:10;;;;;;;10.10;2.40;;;22.10;55.00;;;;;;221929;1248;23042;-58
2023/03/05 15:42:18;;;;;;;9.30;2.80;;;22.00;54.80;;;;;;221761;1263;23876;-58
2023/03/05 15:47:25;;;;;;;51.80;7.00;;;21.90;55.60;;;;;;221940;1263;22606;-58
2023/03/05 15:52:32;;;;;;;59.30;7.50;;;22.10;54.80;;;;;;221930;1247;22648;-60
2023/03/05 15:57:44;;;;;;;49.80;6.30;;;22.00;53.90;;;;;;221903;1263;25328;-60
2023/03/05 16:02:50;;;;;;;34.70;5.10;;;21.90;54.20;;;;;;222027;1254;22527;-60
2023/03/05 16:08:03;;;;;;;36.30;5.40;;;21.70;54.00;;;;;;222044;1255;22510;-58
2023/03/05 16:13:15;;;;;;;39.80;5.50;;;21.50;55.00;;;;;;222044;1263;25265;-60
2023/03/05 16:18:23;;;;;;;35.70;5.60;;;21.50;54.70;;;;;;221709;1247;22536;-57
2023/03/05 16:23:39;;;;;;;30.00;5.90;;;21.50;54.90;;;;;;227853;1263;22519;-58
2023/03/05 16:28:46;;;;;;;18.80;4.20;;;21.60;54.50;;;;;;221776;1257;22727;-59
2023/03/05 16:33:55;;;;;;;23.40;4.80;;;21.60;54.00;;;;;;222219;1263;22554;-60
2023/03/05 16:39:03;;;;;;;25.90;4.30;;;21.50;54.20;;;;;;222027;1263;25488;-59
2023/03/05 16:44:13;;;;;;;16.90;4.30;;;21.30;54.60;;;;;;222130;1264;22632;-57
2023/03/05 16:49:21;;;;;;;17.20;3.80;;;21.30;54.40;;;;;;222224;1263;24258;-59
2023/03/05 16:54:28;;;;;;;20.60;3.80;;;21.30;54.30;;;;;;222137;1263;23537;-59
2023/03/05 16:59:36;;;;;;;16.10;4.10;;;21.20;54.70;;;;;;221987;1258;24215;-59
2023/03/05 17:04:43;;;;;;;16.80;4.10;;;21.10;54.70;;;;;;222078;1263;23897;-60
2023/03/05 17:09:51;;;;;;;14.80;3.60;;;21.10;54.60;;;;;;222293;1263;25252;-59
2023/03/05 17:14:59;;;;;;;18.60;4.80;;;21.20;54.60;;;;;;222163;1256;22530;-60
2023/03/05 17:20:07;;;;;;;13.30;3.40;;;21.80;53.50;;;;;;221888;1263;24316;-60
2023/03/05 17:25:13;;;;;;;10.20;3.00;;;22.30;51.80;;;;;;222119;1263;22501;-60
2023/03/05 17:30:30;;;;;;;15.50;3.20;;;22.50;51.40;;;;;;222210;1254;24414;-56
2023/03/05 17:35:37;;;;;;;10.10;3.70;;;22.60;51.00;;;;;;222156;1264;23908;-60
2023/03/05 17:40:48;;;;;;;10.30;3.10;;;22.70;50.80;;;;;;222183;1263;25247;-60
2023/03/05 17:45:58;;;;;;;7.70;2.90;;;22.90;50.50;;;;;;222139;1255;26160;-59
2023/03/05 17:51:12;;;;;;;12.30;3.90;;;22.90;50.30;;;;;;222266;1256;24211;-60
2023/03/05 17:56:20;;;;;;;10.50;3.20;;;23.00;50.20;;;;;;222048;1263;22508;-60
2023/03/05 18:01:33;;;;;;;8.90;2.90;;;23.10;50.20;;;;;;221879;1253;24247;-59
2023/03/05 18:06:41;;;;;;;7.90;3.80;;;23.10;50.10;;;;;;222265;1253;22536;-59
2023/03/05 18:11:50;;;;;;;12.30;4.10;;;23.10;50.60;;;;;;221999;1257;22521;-60
2023/03/05 18:16:59;;;;;;;12.30;3.10;;;23.10;50.30;;;;;;222269;1267;25268;-61
2023/03/05 18:22:04;;;;;;;9.40;2.90;;;23.10;50.40;;;;;;222318;1253;24193;-60
2023/03/05 18:27:14;;;;;;;15.10;3.30;;;23.10;50.90;;;;;;222048;1257;22508;-60
2023/03/05 18:32:30;;;;;;;12.80;3.00;;;23.20;50.30;;;;;;222164;1262;24193;-60
2023/03/05 18:37:38;;;;;;;7.10;3.30;;;23.30;50.30;;;;;;222089;1263;24185;-60
2023/03/05 18:42:47;;;;;;;9.50;3.70;;;23.40;50.20;;;;;;222144;1247;22546;-58
2023/03/05 18:47:55;;;;;;;14.10;3.20;;;23.30;51.10;;;;;;222049;1262;23101;-58
2023/03/05 18:53:03;;;;;;;9.50;3.00;;;23.10;51.10;;;;;;222230;1263;22515;-58
2023/03/05 18:58:14;;;;;;;7.80;3.10;;;23.00;52.20;;;;;;221737;1247;22688;-59
2023/03/05 19:03:20;;;;;;;14.90;3.80;;;22.90;52.20;;;;;;222311;1264;22823;-61
2023/03/05 19:08:27;;;;;;;9.00;3.50;;;22.80;52.90;;;;;;222228;1263;22652;-60
2023/03/05 19:13:38;;;;;;;13.30;3.80;;;22.70;53.10;;;;;;222296;1264;25210;-58
2023/03/05 19:19:04;;;;;;;9.00;3.40;;;22.60;53.40;;;;;;222379;1253;24164;-58
2023/03/05 19:24:10;;;;;;;9.50;3.10;;;22.60;54.10;;;;;;222036;1257;24272;-59
2023/03/05 19:29:17;;;;;;;10.70;3.20;;;22.50;53.40;;;;;;222243;1257;22518;-58
2023/03/05 19:34:23;;;;;;;7.70;2.90;;;22.40;53.80;;;;;;222005;1264;23020;-59
2023/03/05 19:39:32;;;;;;;7.30;3.90;;;22.40;53.40;;;;;;222331;1263;25315;-60
2023/03/05 19:44:45;;;;;;;5.20;3.00;;;22.30;53.20;;;;;;222122;1258;25490;-59
2023/03/05 19:49:54;;;;;;;9.10;3.60;;;22.20;53.60;;;;;;222125;1255;25318;-57
2023/03/05 19:55:13;;;;;;;7.00;3.20;;;22.30;53.70;;;;;;222195;1261;24520;-59
2023/03/05 20:00:25;;;;;;;6.70;2.90;;;22.20;53.30;;;;;;221905;1253;25440;-59
2023/03/05 20:06:27;;;;;;;10.10;3.60;;;22.20;53.20;;;;;;222127;1269;25497;-59
2023/03/05 20:12:12;;;;;;;8.70;2.90;;;22.20;53.30;;;;;;222303;1250;24270;-58
2023/03/05 20:17:32;;;;;;;5.50;3.30;;;21.90;53.40;;;;;;222324;1248;26575;-59
2023/03/05 20:22:43;;;;;;;8.20;3.10;;;22.00;53.40;;;;;;222259;1264;25051;-58
2023/03/05 20:27:52;;;;;;;16.10;3.50;;;22.00;52.80;;;;;;222187;1253;22931;-57
2023/03/05 20:33:24;;;;;;;5.50;3.20;;;22.00;53.40;;;;;;222273;1253;24044;-57
2023/03/05 20:38:31;;;;;;;7.50;3.30;;;22.00;53.40;;;;;;222180;1246;24187;-58
2023/03/05 20:43:47;;;;;;;8.20;3.20;;;21.90;53.40;;;;;;222209;1255;22632;-56
2023/03/05 20:49:19;;;;;;;7.30;3.10;;;21.90;54.20;;;;;;222478;1260;24558;-55
2023/03/05 20:55:05;;;;;;;11.30;3.40;;;21.90;54.20;;;;;;222395;1265;24184;-57
2023/03/05 21:00:11;;;;;;;12.10;4.60;;;21.80;54.80;;;;;;222599;1257;23924;-56
2023/03/05 21:05:18;;;;;;;12.80;4.20;;;21.80;56.80;;;;;;222225;1247;25291;-53
2023/03/05 21:10:26;;;;;;;16.10;4.20;;;21.80;56.90;;;;;;221900;1263;24256;-56
2023/03/05 21:15:35;;;;;;;19.90;4.40;;;21.60;56.80;;;;;;222085;1250;24357;-57
2023/03/05 21:20:40;;;;;;;24.70;4.40;;;21.70;56.40;;;;;;222030;1257;23338;-41
2023/03/05 21:25:46;;;;;;;18.50;4.60;;;21.70;56.00;;;;;;222200;1269;27458;-41
2023/03/05 21:30:53;;;;;;;12.00;3.90;;;21.50;56.50;;;;;;222176;1256;25268;-40
2023/03/05 21:35:59;;;;;;;8.50;3.70;;;21.60;56.10;;;;;;221984;1265;22553;-42
2023/03/05 21:41:04;;;;;;;12.70;4.00;;;21.70;56.10;;;;;;222041;1259;22522;-41
2023/03/05 21:46:11;;;;;;;8.10;4.00;;;21.90;55.30;;;;;;222260;1263;23993;-42
2023/03/05 21:51:17;;;;;;;11.70;4.10;;;22.10;54.30;;;;;;222150;1256;22514;-43
2023/03/05 21:56:23;;;;;;;12.10;4.40;;;22.40;54.60;;;;;;222355;1246;23965;-42
2023/03/05 22:01:29;;;;;;;11.10;4.10;;;22.60;52.90;;;;;;222183;1259;22515;-47
2023/03/05 22:06:34;;;;;;;13.20;3.60;;;22.80;52.90;;;;;;222317;1256;24242;-42
2023/03/05 22:11:42;;;;;;;25.10;6.20;;;22.90;52.30;;;;;;222139;1264;25603;-40
2023/03/05 22:16:50;;;;;;;13.10;4.60;;;22.90;55.70;;;;;;222136;1263;22593;-42
2023/03/05 22:21:56;;;;;;;11.20;4.40;;;23.00;54.00;;;;;;222007;1257;24312;-44
2023/03/05 22:27:00;;;;;;;14.70;4.40;;;23.00;53.90;;;;;;222202;1263;22522;-40
2023/03/05 22:32:05;;;;;;;10.50;3.60;;;23.00;53.90;;;;;;222196;1263;25386;-42
2023/03/05 22:37:09;;;;;;;8.60;3.90;;;23.10;53.80;;;;;;222203;1257;25337;-44
2023/03/05 22:42:13;;;;;;;9.40;3.70;;;23.10;53.50;;;;;;222167;1264;23888;-41
2023/03/05 22:47:17;;;;;;;10.20;3.70;;;23.20;53.20;;;;;;222269;1262;24866;-42
2023/03/05 22:52:21;;;;;;;11.20;3.40;;;23.20;53.30;;;;;;222232;1256;22532;-47
2023/03/05 22:57:25;;;;;;;8.80;3.20;;;23.20;52.90;;;;;;222174;1263;22542;-42
2023/03/05 23:02:30;;;;;;;7.10;3.30;;;23.00;53.00;;;;;;222168;1256;25421;-41
2023/03/05 23:07:36;;;;;;;7.50;3.50;;;23.00;53.10;;;;;;222326;1264;24470;-43
2023/03/05 23:12:44;;;;;;;8.60;3.50;;;22.90;53.20;;;;;;222147;1258;22623;-44
2023/03/05 23:17:48;;;;;;;6.40;3.10;;;22.80;53.30;;;;;;222299;1264;22521;-42
2023/03/05 23:22:54;;;;;;;6.70;3.20;;;22.70;53.70;;;;;;222275;1256;24241;-43
2023/03/05 23:27:59;;;;;;;7.70;4.00;;;22.60;53.50;;;;;;222230;1263;24187;-43
2023/03/05 23:33:04;;;;;;;7.50;3.30;;;22.50;53.60;;;;;;222056;1264;23135;-42
2023/03/05 23:38:13;;;;;;;5.40;3.30;;;22.40;53.50;;;;;;222252;1257;22511;-43
2023/03/05 23:43:18;;;;;;;6.70;3.30;;;22.40;53.30;;;;;;222268;1263;25278;-42
2023/03/05 23:48:24;;;;;;;6.90;2.80;;;22.30;53.60;;;;;;222213;1264;22589;-40
2023/03/05 23:53:31;;;;;;;5.90;3.30;;;22.20;53.70;;;;;;222287;1263;22656;-42
2023/03/05 23:58:37;;;;;;;4.90;3.10;;;22.10;53.80;;;;;;222072;1264;24248;-44
